sensor_id;sensor_type;location;lat;lon;timestamp;P1;durP1;ratioP1;P2;durP2;ratioP2
54177;SDS011;40085;53.004;6.770;2023-07-13T00:01:28;3.60;;;2.08;;
54177;SDS011;40085;53.004;6.770;2023-07-13T00:03:57;4.32;;;1.50;;
54177;SDS011;40085;53.004;6.770;2023-07-13T00:06:24;5.80;;;2.13;;
54177;SDS011;40085;53.004;6.770;2023-07-13T00:08:50;3.28;;;1.83;;
54177;SDS011;40085;53.004;6.770;2023-07-13T00:11:16;2.70;;;1.60;;
54177;SDS011;40085;53.004;6.770;2023-07-13T00:13:42;5.25;;;1.98;;
54177;SDS011;40085;53.004;6.770;2023-07-13T00:16:10;5.50;;;1.48;;
54177;SDS011;40085;53.004;6.770;2023-07-13T00:18:36;6.22;;;2.00;;
54177;SDS011;40085;53.004;6.770;2023-07-13T00:21:03;6.13;;;2.15;;
54177;SDS011;40085;53.004;6.770;2023-07-13T00:23:32;4.63;;;1.75;;
54177;SDS011;40085;53.004;6.770;2023-07-13T00:28:29;9.55;;;2.15;;
54177;SDS011;40085;53.004;6.770;2023-07-13T00:30:55;5.28;;;1.73;;
54177;SDS011;40085;53.004;6.770;2023-07-13T00:33:21;3.83;;;1.60;;
54177;SDS011;40085;53.004;6.770;2023-07-13T00:35:47;5.18;;;1.80;;
54177;SDS011;40085;53.004;6.770;2023-07-13T00:38:13;5.82;;;1.90;;
54177;SDS011;40085;53.004;6.770;2023-07-13T00:40:39;7.43;;;1.90;;
54177;SDS011;40085;53.004;6.770;2023-07-13T00:43:18;5.63;;;2.20;;
54177;SDS011;40085;53.004;6.770;2023-07-13T00:48:13;11.70;;;2.50;;
54177;SDS011;40085;53.004;6.770;2023-07-13T00:50:42;4.25;;;1.42;;
54177;SDS011;40085;53.004;6.770;2023-07-13T00:53:10;6.78;;;1.70;;
54177;SDS011;40085;53.004;6.770;2023-07-13T00:55:36;6.35;;;1.80;;
54177;SDS011;40085;53.004;6.770;2023-07-13T00:58:03;8.93;;;2.20;;
54177;SDS011;40085;53.004;6.770;2023-07-13T01:00:31;3.35;;;1.80;;
54177;SDS011;40085;53.004;6.770;2023-07-13T01:03:00;6.25;;;2.13;;
54177;SDS011;40085;53.004;6.770;2023-07-13T01:05:29;7.55;;;1.92;;
54177;SDS011;40085;53.004;6.770;2023-07-13T01:07:57;8.13;;;2.15;;
54177;SDS011;40085;53.004;6.770;2023-07-13T01:10:24;5.72;;;2.08;;
54177;SDS011;40085;53.004;6.770;2023-07-13T01:12:50;6.85;;;2.20;;
54177;SDS011;40085;53.004;6.770;2023-07-13T01:18:01;4.90;;;1.88;;
54177;SDS011;40085;53.004;6.770;2023-07-13T01:20:28;4.20;;;1.67;;
54177;SDS011;40085;53.004;6.770;2023-07-13T01:22:54;6.35;;;2.17;;
54177;SDS011;40085;53.004;6.770;2023-07-13T01:25:20;6.05;;;2.25;;
54177;SDS011;40085;53.004;6.770;2023-07-13T01:27:46;6.32;;;2.20;;
54177;SDS011;40085;53.004;6.770;2023-07-13T01:30:12;9.07;;;2.55;;
54177;SDS011;40085;53.004;6.770;2023-07-13T01:32:38;7.80;;;1.95;;
54177;SDS011;40085;53.004;6.770;2023-07-13T01:35:06;10.65;;;2.33;;
54177;SDS011;40085;53.004;6.770;2023-07-13T01:37:33;8.18;;;1.80;;
54177;SDS011;40085;53.004;6.770;2023-07-13T01:40:01;12.48;;;1.95;;
54177;SDS011;40085;53.004;6.770;2023-07-13T01:42:28;3.22;;;2.00;;
54177;SDS011;40085;53.004;6.770;2023-07-13T01:44:54;3.85;;;1.70;;
54177;SDS011;40085;53.004;6.770;2023-07-13T01:47:20;8.00;;;2.17;;
54177;SDS011;40085;53.004;6.770;2023-07-13T01:49:45;9.35;;;2.33;;
54177;SDS011;40085;53.004;6.770;2023-07-13T01:52:12;7.00;;;2.15;;
54177;SDS011;40085;53.004;6.770;2023-07-13T01:54:38;6.43;;;1.80;;
54177;SDS011;40085;53.004;6.770;2023-07-13T01:57:03;6.63;;;2.25;;
54177;SDS011;40085;53.004;6.770;2023-07-13T01:59:29;6.05;;;2.22;;
54177;SDS011;40085;53.004;6.770;2023-07-13T02:01:55;9.55;;;2.20;;
54177;SDS011;40085;53.004;6.770;2023-07-13T02:04:21;5.55;;;1.90;;
54177;SDS011;40085;53.004;6.770;2023-07-13T02:06:46;3.92;;;1.58;;
54177;SDS011;40085;53.004;6.770;2023-07-13T02:09:12;6.10;;;1.98;;
54177;SDS011;40085;53.004;6.770;2023-07-13T02:11:38;7.63;;;2.10;;
54177;SDS011;40085;53.004;6.770;2023-07-13T02:14:03;3.47;;;1.67;;
54177;SDS011;40085;53.004;6.770;2023-07-13T02:16:29;5.78;;;2.17;;
54177;SDS011;40085;53.004;6.770;2023-07-13T02:18:55;7.57;;;1.80;;
54177;SDS011;40085;53.004;6.770;2023-07-13T02:21:22;6.63;;;1.80;;
54177;SDS011;40085;53.004;6.770;2023-07-13T02:23:48;5.03;;;2.30;;
54177;SDS011;40085;53.004;6.770;2023-07-13T02:26:14;5.45;;;2.20;;
54177;SDS011;40085;53.004;6.770;2023-07-13T02:28:41;5.90;;;1.88;;
54177;SDS011;40085;53.004;6.770;2023-07-13T02:31:07;6.95;;;2.30;;
54177;SDS011;40085;53.004;6.770;2023-07-13T02:33:35;5.82;;;2.03;;
54177;SDS011;40085;53.004;6.770;2023-07-13T02:36:01;5.65;;;2.05;;
54177;SDS011;40085;53.004;6.770;2023-07-13T02:38:26;7.63;;;2.50;;
54177;SDS011;40085;53.004;6.770;2023-07-13T02:40:52;9.30;;;2.20;;
54177;SDS011;40085;53.004;6.770;2023-07-13T02:43:18;3.47;;;1.90;;
54177;SDS011;40085;53.004;6.770;2023-07-13T02:45:44;7.28;;;2.05;;
54177;SDS011;40085;53.004;6.770;2023-07-13T02:48:10;9.23;;;2.60;;
54177;SDS011;40085;53.004;6.770;2023-07-13T02:50:38;9.23;;;2.22;;
54177;SDS011;40085;53.004;6.770;2023-07-13T02:53:04;4.90;;;2.00;;
54177;SDS011;40085;53.004;6.770;2023-07-13T02:55:30;10.38;;;3.10;;
54177;SDS011;40085;53.004;6.770;2023-07-13T02:57:55;5.85;;;2.33;;
54177;SDS011;40085;53.004;6.770;2023-07-13T03:00:22;8.80;;;2.20;;
54177;SDS011;40085;53.004;6.770;2023-07-13T03:02:48;8.30;;;2.08;;
54177;SDS011;40085;53.004;6.770;2023-07-13T03:05:13;8.02;;;2.80;;
54177;SDS011;40085;53.004;6.770;2023-07-13T03:07:40;10.75;;;2.40;;
54177;SDS011;40085;53.004;6.770;2023-07-13T03:10:06;5.45;;;2.15;;
54177;SDS011;40085;53.004;6.770;2023-07-13T03:12:32;7.70;;;2.40;;
54177;SDS011;40085;53.004;6.770;2023-07-13T03:14:58;7.57;;;2.58;;
54177;SDS011;40085;53.004;6.770;2023-07-13T03:17:23;7.47;;;2.35;;
54177;SDS011;40085;53.004;6.770;2023-07-13T03:19:49;5.10;;;2.25;;
54177;SDS011;40085;53.004;6.770;2023-07-13T03:22:19;6.00;;;2.30;;
54177;SDS011;40085;53.004;6.770;2023-07-13T03:24:44;6.15;;;2.42;;
54177;SDS011;40085;53.004;6.770;2023-07-13T03:27:11;7.60;;;2.53;;
54177;SDS011;40085;53.004;6.770;2023-07-13T03:29:36;6.40;;;2.33;;
54177;SDS011;40085;53.004;6.770;2023-07-13T03:32:02;5.15;;;2.35;;
54177;SDS011;40085;53.004;6.770;2023-07-13T03:34:29;6.85;;;2.35;;
54177;SDS011;40085;53.004;6.770;2023-07-13T03:36:55;8.65;;;2.40;;
54177;SDS011;40085;53.004;6.770;2023-07-13T03:39:21;8.07;;;2.30;;
54177;SDS011;40085;53.004;6.770;2023-07-13T03:41:47;9.63;;;2.20;;
54177;SDS011;40085;53.004;6.770;2023-07-13T03:44:13;6.00;;;2.35;;
54177;SDS011;40085;53.004;6.770;2023-07-13T03:46:40;8.40;;;2.17;;
54177;SDS011;40085;53.004;6.770;2023-07-13T03:49:06;6.97;;;2.42;;
54177;SDS011;40085;53.004;6.770;2023-07-13T03:51:32;4.85;;;2.17;;
54177;SDS011;40085;53.004;6.770;2023-07-13T03:53:57;5.65;;;2.33;;
54177;SDS011;40085;53.004;6.770;2023-07-13T03:56:23;7.70;;;2.50;;
54177;SDS011;40085;53.004;6.770;2023-07-13T03:58:49;8.60;;;2.00;;
54177;SDS011;40085;53.004;6.770;2023-07-13T04:01:16;8.98;;;2.40;;
54177;SDS011;40085;53.004;6.770;2023-07-13T04:03:44;4.13;;;2.05;;
54177;SDS011;40085;53.004;6.770;2023-07-13T04:06:19;7.10;;;1.90;;
54177;SDS011;40085;53.004;6.770;2023-07-13T04:08:49;8.50;;;2.60;;
54177;SDS011;40085;53.004;6.770;2023-07-13T04:11:17;5.50;;;2.08;;
54177;SDS011;40085;53.004;6.770;2023-07-13T04:13:44;5.70;;;2.35;;
54177;SDS011;40085;53.004;6.770;2023-07-13T04:16:10;6.85;;;2.50;;
54177;SDS011;40085;53.004;6.770;2023-07-13T04:18:35;8.13;;;2.30;;
54177;SDS011;40085;53.004;6.770;2023-07-13T04:21:01;5.55;;;2.30;;
54177;SDS011;40085;53.004;6.770;2023-07-13T04:23:27;6.85;;;2.45;;
54177;SDS011;40085;53.004;6.770;2023-07-13T04:25:53;9.48;;;2.30;;
54177;SDS011;40085;53.004;6.770;2023-07-13T04:28:22;11.73;;;2.60;;
54177;SDS011;40085;53.004;6.770;2023-07-13T04:30:49;5.82;;;2.60;;
54177;SDS011;40085;53.004;6.770;2023-07-13T04:33:15;6.65;;;2.22;;
54177;SDS011;40085;53.004;6.770;2023-07-13T04:35:42;11.40;;;2.55;;
54177;SDS011;40085;53.004;6.770;2023-07-13T04:38:09;7.00;;;2.13;;
54177;SDS011;40085;53.004;6.770;2023-07-13T04:40:36;8.63;;;2.45;;
54177;SDS011;40085;53.004;6.770;2023-07-13T04:43:02;6.70;;;2.47;;
54177;SDS011;40085;53.004;6.770;2023-07-13T04:45:28;8.32;;;2.47;;
54177;SDS011;40085;53.004;6.770;2023-07-13T04:47:54;6.47;;;2.45;;
54177;SDS011;40085;53.004;6.770;2023-07-13T04:50:20;7.05;;;2.85;;
54177;SDS011;40085;53.004;6.770;2023-07-13T04:52:50;7.90;;;2.63;;
54177;SDS011;40085;53.004;6.770;2023-07-13T04:55:16;6.55;;;2.60;;
54177;SDS011;40085;53.004;6.770;2023-07-13T04:57:43;7.78;;;2.20;;
54177;SDS011;40085;53.004;6.770;2023-07-13T05:00:09;7.93;;;2.72;;
54177;SDS011;40085;53.004;6.770;2023-07-13T05:02:37;5.00;;;2.20;;
54177;SDS011;40085;53.004;6.770;2023-07-13T05:05:04;9.93;;;2.35;;
54177;SDS011;40085;53.004;6.770;2023-07-13T05:07:30;9.02;;;2.50;;
54177;SDS011;40085;53.004;6.770;2023-07-13T05:09:58;7.38;;;2.63;;
54177;SDS011;40085;53.004;6.770;2023-07-13T05:12:24;11.30;;;3.15;;
54177;SDS011;40085;53.004;6.770;2023-07-13T05:14:50;7.80;;;2.47;;
54177;SDS011;40085;53.004;6.770;2023-07-13T05:17:16;9.75;;;3.05;;
54177;SDS011;40085;53.004;6.770;2023-07-13T05:19:42;8.07;;;2.38;;
54177;SDS011;40085;53.004;6.770;2023-07-13T05:22:08;9.50;;;2.80;;
54177;SDS011;40085;53.004;6.770;2023-07-13T05:24:33;6.78;;;2.50;;
54177;SDS011;40085;53.004;6.770;2023-07-13T05:26:59;7.10;;;2.15;;
54177;SDS011;40085;53.004;6.770;2023-07-13T05:29:25;5.18;;;2.33;;
54177;SDS011;40085;53.004;6.770;2023-07-13T05:31:50;5.88;;;2.47;;
54177;SDS011;40085;53.004;6.770;2023-07-13T05:34:16;6.68;;;2.55;;
54177;SDS011;40085;53.004;6.770;2023-07-13T05:36:42;9.98;;;2.25;;
54177;SDS011;40085;53.004;6.770;2023-07-13T05:39:08;6.30;;;2.42;;
54177;SDS011;40085;53.004;6.770;2023-07-13T05:41:34;7.15;;;2.28;;
54177;SDS011;40085;53.004;6.770;2023-07-13T05:44:00;5.18;;;2.35;;
54177;SDS011;40085;53.004;6.770;2023-07-13T05:46:26;6.45;;;2.10;;
54177;SDS011;40085;53.004;6.770;2023-07-13T05:48:52;6.13;;;2.00;;
54177;SDS011;40085;53.004;6.770;2023-07-13T05:51:17;5.30;;;2.00;;
54177;SDS011;40085;53.004;6.770;2023-07-13T05:53:43;6.63;;;2.13;;
54177;SDS011;40085;53.004;6.770;2023-07-13T05:56:08;7.75;;;2.03;;
54177;SDS011;40085;53.004;6.770;2023-07-13T05:58:34;5.22;;;2.45;;
54177;SDS011;40085;53.004;6.770;2023-07-13T06:01:04;8.88;;;2.13;;
54177;SDS011;40085;53.004;6.770;2023-07-13T06:03:32;9.45;;;2.67;;
54177;SDS011;40085;53.004;6.770;2023-07-13T06:05:58;6.88;;;2.63;;
54177;SDS011;40085;53.004;6.770;2023-07-13T06:08:25;7.40;;;2.38;;
54177;SDS011;40085;53.004;6.770;2023-07-13T06:10:51;5.32;;;2.70;;
54177;SDS011;40085;53.004;6.770;2023-07-13T06:13:17;8.45;;;2.30;;
54177;SDS011;40085;53.004;6.770;2023-07-13T06:15:48;6.03;;;2.10;;
54177;SDS011;40085;53.004;6.770;2023-07-13T06:18:14;7.73;;;2.63;;
54177;SDS011;40085;53.004;6.770;2023-07-13T06:20:40;8.05;;;2.08;;
54177;SDS011;40085;53.004;6.770;2023-07-13T06:23:05;5.45;;;2.05;;
54177;SDS011;40085;53.004;6.770;2023-07-13T06:25:31;4.53;;;2.00;;
54177;SDS011;40085;53.004;6.770;2023-07-13T06:27:57;3.95;;;2.45;;
54177;SDS011;40085;53.004;6.770;2023-07-13T06:30:22;9.50;;;2.72;;
54177;SDS011;40085;53.004;6.770;2023-07-13T06:32:48;7.13;;;2.05;;
54177;SDS011;40085;53.004;6.770;2023-07-13T06:35:14;7.47;;;2.35;;
54177;SDS011;40085;53.004;6.770;2023-07-13T06:37:40;9.70;;;2.45;;
54177;SDS011;40085;53.004;6.770;2023-07-13T06:40:06;4.57;;;2.10;;
54177;SDS011;40085;53.004;6.770;2023-07-13T06:42:32;6.55;;;1.98;;
54177;SDS011;40085;53.004;6.770;2023-07-13T06:44:58;5.10;;;2.05;;
54177;SDS011;40085;53.004;6.770;2023-07-13T06:47:23;5.70;;;1.80;;
54177;SDS011;40085;53.004;6.770;2023-07-13T06:49:49;7.43;;;2.50;;
54177;SDS011;40085;53.004;6.770;2023-07-13T06:52:15;7.80;;;1.95;;
54177;SDS011;40085;53.004;6.770;2023-07-13T06:54:40;4.18;;;2.00;;
54177;SDS011;40085;53.004;6.770;2023-07-13T06:57:06;7.57;;;2.53;;
54177;SDS011;40085;53.004;6.770;2023-07-13T06:59:32;4.28;;;1.50;;
54177;SDS011;40085;53.004;6.770;2023-07-13T07:01:58;5.90;;;1.88;;
54177;SDS011;40085;53.004;6.770;2023-07-13T07:04:24;4.80;;;2.20;;
54177;SDS011;40085;53.004;6.770;2023-07-13T07:06:50;4.30;;;1.75;;
54177;SDS011;40085;53.004;6.770;2023-07-13T07:09:16;5.70;;;2.40;;
54177;SDS011;40085;53.004;6.770;2023-07-13T07:11:42;5.00;;;1.58;;
54177;SDS011;40085;53.004;6.770;2023-07-13T07:14:08;8.00;;;2.47;;
54177;SDS011;40085;53.004;6.770;2023-07-13T07:16:34;5.38;;;1.90;;
54177;SDS011;40085;53.004;6.770;2023-07-13T07:19:00;6.55;;;1.83;;
54177;SDS011;40085;53.004;6.770;2023-07-13T07:21:26;3.97;;;2.15;;
54177;SDS011;40085;53.004;6.770;2023-07-13T07:23:52;7.07;;;2.17;;
54177;SDS011;40085;53.004;6.770;2023-07-13T07:26:18;6.55;;;1.73;;
54177;SDS011;40085;53.004;6.770;2023-07-13T07:28:44;6.75;;;2.13;;
54177;SDS011;40085;53.004;6.770;2023-07-13T07:31:10;2.60;;;1.65;;
54177;SDS011;40085;53.004;6.770;2023-07-13T07:33:35;5.70;;;1.17;;
54177;SDS011;40085;53.004;6.770;2023-07-13T07:36:02;8.60;;;2.25;;
54177;SDS011;40085;53.004;6.770;2023-07-13T07:38:28;5.53;;;1.88;;
54177;SDS011;40085;53.004;6.770;2023-07-13T07:40:54;3.40;;;1.70;;
54177;SDS011;40085;53.004;6.770;2023-07-13T07:43:19;5.80;;;1.73;;
54177;SDS011;40085;53.004;6.770;2023-07-13T07:45:45;3.42;;;1.88;;
54177;SDS011;40085;53.004;6.770;2023-07-13T07:48:11;9.15;;;2.63;;
54177;SDS011;40085;53.004;6.770;2023-07-13T07:50:37;4.22;;;1.98;;
54177;SDS011;40085;53.004;6.770;2023-07-13T07:53:04;7.55;;;2.25;;
54177;SDS011;40085;53.004;6.770;2023-07-13T07:55:33;6.57;;;2.25;;
54177;SDS011;40085;53.004;6.770;2023-07-13T07:58:02;6.60;;;2.43;;
54177;SDS011;40085;53.004;6.770;2023-07-13T08:00:28;6.88;;;2.53;;
54177;SDS011;40085;53.004;6.770;2023-07-13T08:02:57;8.80;;;2.78;;
54177;SDS011;40085;53.004;6.770;2023-07-13T08:05:23;4.00;;;2.05;;
54177;SDS011;40085;53.004;6.770;2023-07-13T08:07:48;5.10;;;1.88;;
54177;SDS011;40085;53.004;6.770;2023-07-13T08:10:14;4.47;;;1.90;;
54177;SDS011;40085;53.004;6.770;2023-07-13T08:12:40;5.47;;;2.05;;
54177;SDS011;40085;53.004;6.770;2023-07-13T08:15:09;8.55;;;2.10;;
54177;SDS011;40085;53.004;6.770;2023-07-13T08:17:35;7.28;;;2.35;;
54177;SDS011;40085;53.004;6.770;2023-07-13T08:20:01;9.82;;;2.75;;
54177;SDS011;40085;53.004;6.770;2023-07-13T08:22:27;6.80;;;2.60;;
54177;SDS011;40085;53.004;6.770;2023-07-13T08:24:53;7.07;;;2.60;;
54177;SDS011;40085;53.004;6.770;2023-07-13T08:27:25;5.00;;;2.45;;
54177;SDS011;40085;53.004;6.770;2023-07-13T08:32:19;8.73;;;3.17;;
54177;SDS011;40085;53.004;6.770;2023-07-13T08:34:46;7.57;;;2.47;;
54177;SDS011;40085;53.004;6.770;2023-07-13T08:37:11;7.65;;;2.83;;
54177;SDS011;40085;53.004;6.770;2023-07-13T08:39:37;6.20;;;2.97;;
54177;SDS011;40085;53.004;6.770;2023-07-13T08:47:30;6.10;;;2.97;;
54177;SDS011;40085;53.004;6.770;2023-07-13T08:50:00;12.00;;;3.57;;
54177;SDS011;40085;53.004;6.770;2023-07-13T08:52:29;9.45;;;3.47;;
54177;SDS011;40085;53.004;6.770;2023-07-13T08:55:44;5.55;;;3.03;;
54177;SDS011;40085;53.004;6.770;2023-07-13T08:58:03;6.55;;;2.70;;
54177;SDS011;40085;53.004;6.770;2023-07-13T09:01:19;6.35;;;2.05;;
54177;SDS011;40085;53.004;6.770;2023-07-13T09:03:44;2.88;;;1.92;;
54177;SDS011;40085;53.004;6.770;2023-07-13T09:06:34;4.85;;;2.28;;
54177;SDS011;40085;53.004;6.770;2023-07-13T09:14:49;6.30;;;2.33;;
54177;SDS011;40085;53.004;6.770;2023-07-13T09:17:19;5.15;;;2.20;;
54177;SDS011;40085;53.004;6.770;2023-07-13T09:19:59;5.50;;;2.30;;
54177;SDS011;40085;53.004;6.770;2023-07-13T09:22:49;4.40;;;2.05;;
54177;SDS011;40085;53.004;6.770;2023-07-13T09:25:33;5.28;;;2.13;;
54177;SDS011;40085;53.004;6.770;2023-07-13T09:28:02;5.30;;;2.45;;
54177;SDS011;40085;53.004;6.770;2023-07-13T09:33:21;3.55;;;2.03;;
54177;SDS011;40085;53.004;6.770;2023-07-13T09:35:48;5.47;;;2.33;;
54177;SDS011;40085;53.004;6.770;2023-07-13T09:38:16;4.68;;;2.50;;
54177;SDS011;40085;53.004;6.770;2023-07-13T09:40:47;5.00;;;2.83;;
54177;SDS011;40085;53.004;6.770;2023-07-13T09:43:24;5.75;;;2.92;;
54177;SDS011;40085;53.004;6.770;2023-07-13T09:45:50;6.32;;;2.97;;
54177;SDS011;40085;53.004;6.770;2023-07-13T09:48:16;7.65;;;3.05;;
54177;SDS011;40085;53.004;6.770;2023-07-13T09:50:42;4.97;;;2.58;;
54177;SDS011;40085;53.004;6.770;2023-07-13T09:53:12;6.25;;;3.20;;
54177;SDS011;40085;53.004;6.770;2023-07-13T09:55:40;7.60;;;2.72;;
54177;SDS011;40085;53.004;6.770;2023-07-13T10:00:53;4.07;;;2.55;;
54177;SDS011;40085;53.004;6.770;2023-07-13T10:03:28;5.30;;;2.13;;
54177;SDS011;40085;53.004;6.770;2023-07-13T10:08:40;3.33;;;1.98;;
54177;SDS011;40085;53.004;6.770;2023-07-13T10:13:58;4.05;;;1.83;;
54177;SDS011;40085;53.004;6.770;2023-07-13T10:16:27;2.67;;;1.80;;
54177;SDS011;40085;53.004;6.770;2023-07-13T10:19:05;3.80;;;1.90;;
54177;SDS011;40085;53.004;6.770;2023-07-13T10:21:39;3.08;;;1.75;;
54177;SDS011;40085;53.004;6.770;2023-07-13T10:24:24;3.65;;;2.00;;
54177;SDS011;40085;53.004;6.770;2023-07-13T10:29:23;3.50;;;1.42;;
54177;SDS011;40085;53.004;6.770;2023-07-13T10:31:52;4.20;;;1.83;;
54177;SDS011;40085;53.004;6.770;2023-07-13T10:34:17;2.53;;;1.45;;
54177;SDS011;40085;53.004;6.770;2023-07-13T10:36:45;2.58;;;1.60;;
54177;SDS011;40085;53.004;6.770;2023-07-13T10:39:16;4.10;;;1.90;;
54177;SDS011;40085;53.004;6.770;2023-07-13T10:41:44;3.08;;;1.40;;
54177;SDS011;40085;53.004;6.770;2023-07-13T10:44:26;3.15;;;1.60;;
54177;SDS011;40085;53.004;6.770;2023-07-13T10:47:04;3.13;;;1.55;;
54177;SDS011;40085;53.004;6.770;2023-07-13T10:49:34;2.58;;;1.75;;
54177;SDS011;40085;53.004;6.770;2023-07-13T10:52:01;5.18;;;1.65;;
54177;SDS011;40085;53.004;6.770;2023-07-13T10:54:32;5.57;;;1.92;;
54177;SDS011;40085;53.004;6.770;2023-07-13T10:57:18;5.40;;;1.90;;
54177;SDS011;40085;53.004;6.770;2023-07-13T10:59:47;3.10;;;1.60;;
54177;SDS011;40085;53.004;6.770;2023-07-13T11:02:22;2.33;;;1.58;;
54177;SDS011;40085;53.004;6.770;2023-07-13T11:04:51;3.22;;;1.40;;
54177;SDS011;40085;53.004;6.770;2023-07-13T11:07:26;5.05;;;1.52;;
54177;SDS011;40085;53.004;6.770;2023-07-13T11:09:58;4.10;;;1.90;;
54177;SDS011;40085;53.004;6.770;2023-07-13T11:12:48;2.72;;;1.80;;
54177;SDS011;40085;53.004;6.770;2023-07-13T11:15:15;3.35;;;2.00;;
54177;SDS011;40085;53.004;6.770;2023-07-13T11:20:36;2.45;;;1.70;;
54177;SDS011;40085;53.004;6.770;2023-07-13T11:25:35;4.00;;;2.08;;
54177;SDS011;40085;53.004;6.770;2023-07-13T11:30:38;3.63;;;2.13;;
54177;SDS011;40085;53.004;6.770;2023-07-13T11:35:59;4.75;;;2.33;;
54177;SDS011;40085;53.004;6.770;2023-07-13T11:38:30;4.75;;;2.28;;
54177;SDS011;40085;53.004;6.770;2023-07-13T11:41:01;4.45;;;2.17;;
54177;SDS011;40085;53.004;6.770;2023-07-13T11:43:33;5.78;;;2.45;;
54177;SDS011;40085;53.004;6.770;2023-07-13T11:46:11;4.82;;;2.25;;
54177;SDS011;40085;53.004;6.770;2023-07-13T11:48:38;3.35;;;2.30;;
54177;SDS011;40085;53.004;6.770;2023-07-13T11:51:05;3.25;;;2.03;;
54177;SDS011;40085;53.004;6.770;2023-07-13T11:53:39;5.50;;;2.30;;
54177;SDS011;40085;53.004;6.770;2023-07-13T11:56:09;2.65;;;1.60;;
54177;SDS011;40085;53.004;6.770;2023-07-13T11:58:35;6.78;;;2.60;;
54177;SDS011;40085;53.004;6.770;2023-07-13T12:01:01;1.73;;;1.48;;
54177;SDS011;40085;53.004;6.770;2023-07-13T12:03:29;4.40;;;1.80;;
54177;SDS011;40085;53.004;6.770;2023-07-13T12:06:04;3.28;;;1.55;;
54177;SDS011;40085;53.004;6.770;2023-07-13T12:08:32;2.22;;;1.55;;
54177;SDS011;40085;53.004;6.770;2023-07-13T12:11:05;2.90;;;1.70;;
54177;SDS011;40085;53.004;6.770;2023-07-13T12:13:40;8.45;;;1.90;;
54177;SDS011;40085;53.004;6.770;2023-07-13T12:16:14;2.15;;;1.50;;
54177;SDS011;40085;53.004;6.770;2023-07-13T12:18:42;2.67;;;1.55;;
54177;SDS011;40085;53.004;6.770;2023-07-13T12:23:42;4.65;;;1.70;;
54177;SDS011;40085;53.004;6.770;2023-07-13T12:26:09;4.63;;;1.75;;
54177;SDS011;40085;53.004;6.770;2023-07-13T12:28:37;2.63;;;1.40;;
54177;SDS011;40085;53.004;6.770;2023-07-13T12:34:11;3.22;;;1.10;;
54177;SDS011;40085;53.004;6.770;2023-07-13T12:36:40;1.85;;;1.00;;
54177;SDS011;40085;53.004;6.770;2023-07-13T12:39:15;5.03;;;1.27;;
54177;SDS011;40085;53.004;6.770;2023-07-13T12:41:50;4.88;;;1.23;;
54177;SDS011;40085;53.004;6.770;2023-07-13T12:44:18;2.80;;;0.98;;
54177;SDS011;40085;53.004;6.770;2023-07-13T12:46:56;2.35;;;1.00;;
54177;SDS011;40085;53.004;6.770;2023-07-13T12:49:31;1.23;;;0.82;;
54177;SDS011;40085;53.004;6.770;2023-07-13T12:52:01;3.20;;;1.10;;
54177;SDS011;40085;53.004;6.770;2023-07-13T12:54:29;2.75;;;1.33;;
54177;SDS011;40085;53.004;6.770;2023-07-13T12:56:56;2.22;;;0.73;;
54177;SDS011;40085;53.004;6.770;2023-07-13T12:59:23;2.00;;;0.98;;
54177;SDS011;40085;53.004;6.770;2023-07-13T13:01:54;1.90;;;0.82;;
54177;SDS011;40085;53.004;6.770;2023-07-13T13:04:20;1.63;;;0.98;;
54177;SDS011;40085;53.004;6.770;2023-07-13T13:06:46;2.55;;;0.90;;
54177;SDS011;40085;53.004;6.770;2023-07-13T13:09:14;2.78;;;1.08;;
54177;SDS011;40085;53.004;6.770;2023-07-13T13:11:41;2.53;;;0.70;;
54177;SDS011;40085;53.004;6.770;2023-07-13T13:14:07;2.92;;;1.40;;
54177;SDS011;40085;53.004;6.770;2023-07-13T13:17:07;2.63;;;0.93;;
54177;SDS011;40085;53.004;6.770;2023-07-13T13:19:27;2.00;;;1.10;;
54177;SDS011;40085;53.004;6.770;2023-07-13T13:21:54;2.25;;;1.10;;
54177;SDS011;40085;53.004;6.770;2023-07-13T13:24:23;2.08;;;1.08;;
54177;SDS011;40085;53.004;6.770;2023-07-13T13:26:51;1.90;;;1.02;;
54177;SDS011;40085;53.004;6.770;2023-07-13T13:29:19;1.70;;;0.77;;
54177;SDS011;40085;53.004;6.770;2023-07-13T13:31:49;2.38;;;0.90;;
54177;SDS011;40085;53.004;6.770;2023-07-13T13:34:16;2.42;;;0.93;;
54177;SDS011;40085;53.004;6.770;2023-07-13T13:36:43;3.10;;;1.33;;
54177;SDS011;40085;53.004;6.770;2023-07-13T13:39:23;3.55;;;1.38;;
54177;SDS011;40085;53.004;6.770;2023-07-13T13:41:54;3.83;;;1.45;;
54177;SDS011;40085;53.004;6.770;2023-07-13T13:44:20;1.50;;;0.73;;
54177;SDS011;40085;53.004;6.770;2023-07-13T13:46:49;2.85;;;1.10;;
54177;SDS011;40085;53.004;6.770;2023-07-13T13:49:24;4.32;;;1.38;;
54177;SDS011;40085;53.004;6.770;2023-07-13T13:51:51;1.55;;;0.85;;
54177;SDS011;40085;53.004;6.770;2023-07-13T13:54:18;2.97;;;1.10;;
54177;SDS011;40085;53.004;6.770;2023-07-13T13:56:46;2.88;;;1.10;;
54177;SDS011;40085;53.004;6.770;2023-07-13T13:59:13;3.45;;;1.42;;
54177;SDS011;40085;53.004;6.770;2023-07-13T14:01:39;1.88;;;0.60;;
54177;SDS011;40085;53.004;6.770;2023-07-13T14:04:08;1.58;;;0.70;;
54177;SDS011;40085;53.004;6.770;2023-07-13T14:06:47;2.67;;;0.70;;
54177;SDS011;40085;53.004;6.770;2023-07-13T14:09:15;3.33;;;1.20;;
54177;SDS011;40085;53.004;6.770;2023-07-13T14:11:43;4.75;;;0.60;;
54177;SDS011;40085;53.004;6.770;2023-07-13T14:14:17;3.15;;;0.98;;
54177;SDS011;40085;53.004;6.770;2023-07-13T14:16:45;4.68;;;1.23;;
54177;SDS011;40085;53.004;6.770;2023-07-13T14:19:18;3.97;;;0.90;;
54177;SDS011;40085;53.004;6.770;2023-07-13T14:21:44;5.40;;;1.42;;
54177;SDS011;40085;53.004;6.770;2023-07-13T14:24:09;4.43;;;1.05;;
54177;SDS011;40085;53.004;6.770;2023-07-13T14:26:37;3.92;;;0.90;;
54177;SDS011;40085;53.004;6.770;2023-07-13T14:29:05;1.40;;;0.90;;
54177;SDS011;40085;53.004;6.770;2023-07-13T14:31:41;1.98;;;0.85;;
54177;SDS011;40085;53.004;6.770;2023-07-13T14:34:07;2.90;;;0.85;;
54177;SDS011;40085;53.004;6.770;2023-07-13T14:36:41;1.77;;;0.80;;
54177;SDS011;40085;53.004;6.770;2023-07-13T14:39:14;1.63;;;0.75;;
54177;SDS011;40085;53.004;6.770;2023-07-13T14:41:42;4.03;;;0.85;;
54177;SDS011;40085;53.004;6.770;2023-07-13T14:44:12;1.67;;;0.98;;
54177;SDS011;40085;53.004;6.770;2023-07-13T14:46:38;1.83;;;0.75;;
54177;SDS011;40085;53.004;6.770;2023-07-13T14:51:57;3.00;;;0.70;;
54177;SDS011;40085;53.004;6.770;2023-07-13T14:54:25;2.40;;;0.88;;
54177;SDS011;40085;53.004;6.770;2023-07-13T14:56:51;1.50;;;0.93;;
54177;SDS011;40085;53.004;6.770;2023-07-13T14:59:16;3.08;;;1.23;;
54177;SDS011;40085;53.004;6.770;2023-07-13T15:01:46;3.45;;;0.80;;
54177;SDS011;40085;53.004;6.770;2023-07-13T15:04:13;2.45;;;1.20;;
54177;SDS011;40085;53.004;6.770;2023-07-13T15:06:58;2.08;;;0.80;;
54177;SDS011;40085;53.004;6.770;2023-07-13T15:09:27;2.47;;;0.90;;
54177;SDS011;40085;53.004;6.770;2023-07-13T15:11:57;1.65;;;1.00;;
54177;SDS011;40085;53.004;6.770;2023-07-13T15:14:23;2.80;;;0.85;;
54177;SDS011;40085;53.004;6.770;2023-07-13T15:16:51;2.83;;;0.93;;
54177;SDS011;40085;53.004;6.770;2023-07-13T15:19:18;2.50;;;1.00;;
54177;SDS011;40085;53.004;6.770;2023-07-13T15:21:45;3.67;;;0.98;;
54177;SDS011;40085;53.004;6.770;2023-07-13T15:24:12;4.50;;;0.80;;
54177;SDS011;40085;53.004;6.770;2023-07-13T15:26:38;2.67;;;1.02;;
54177;SDS011;40085;53.004;6.770;2023-07-13T15:29:05;2.50;;;0.93;;
54177;SDS011;40085;53.004;6.770;2023-07-13T15:31:31;2.30;;;1.00;;
54177;SDS011;40085;53.004;6.770;2023-07-13T15:33:57;2.50;;;1.05;;
54177;SDS011;40085;53.004;6.770;2023-07-13T15:36:24;2.10;;;1.02;;
54177;SDS011;40085;53.004;6.770;2023-07-13T15:38:51;1.98;;;0.95;;
54177;SDS011;40085;53.004;6.770;2023-07-13T15:41:21;1.75;;;0.80;;
54177;SDS011;40085;53.004;6.770;2023-07-13T15:43:52;2.00;;;0.82;;
54177;SDS011;40085;53.004;6.770;2023-07-13T15:46:21;3.20;;;1.30;;
54177;SDS011;40085;53.004;6.770;2023-07-13T15:48:48;3.17;;;1.23;;